Time;durP1;ratioP1;P1;durP2;ratioP2;P2;SDS_P1;SDS_P2;PMS_P1;PMS_P2;Temp;Humidity;BMP_temperature;BMP_pressure;BME280_temperature;BME280_humidity;BME280_pressure;Samples;Min_cycle;Max_cycle;Signal;HPM_P1;HPM_P2
2023/01/01 00:01:31;;;;;;;9.50;8.18;;;;;;;10.69;76.03;100557.16;6305965;22;20402;-68
2023/01/01 00:04:35;;;;;;;11.20;8.85;;;;;;;10.74;76.13;100563.91;6306270;22;20463;-68
2023/01/01 00:07:39;;;;;;;19.30;11.73;;;;;;;10.91;75.31;100551.66;6306167;22;20022;-70
2023/01/01 00:10:42;;;;;;;17.20;11.27;;;;;;;10.68;75.79;100563.28;6306607;22;20053;-68
2023/01/01 00:13:47;;;;;;;;;;;;;;;10.45;76.82;100556.66;6307186;22;20026;-69
2023/01/01 00:17:06;;;;;;;13.45;8.85;;;;;;;10.59;76.30;100557.69;6306697;22;20399;-69
2023/01/01 00:20:10;;;;;;;10.20;5.43;;;;;;;10.46;76.48;100547.91;6305795;22;20084;-68
2023/01/01 00:23:14;;;;;;;9.65;4.75;;;;;;;10.21;77.56;100550.88;6305401;22;20083;-69
2023/01/01 00:26:18;;;;;;;10.18;3.60;;;;;;;10.21;77.66;100560.47;6304384;22;20075;-69
2023/01/01 00:29:28;;;;;;;7.47;3.47;;;;;;;10.27;77.58;100560.19;6304332;22;20022;-69
2023/01/01 00:32:31;;;;;;;7.97;4.70;;;;;;;10.21;77.73;100550.88;6304459;22;20022;-69
2023/01/01 00:35:35;;;;;;;9.63;4.25;;;;;;;10.12;78.40;100547.88;6304629;22;20030;-69
2023/01/01 00:38:38;;;;;;;;;;;;;;;10.28;77.78;100548.81;6305222;22;20735;-68
2023/01/01 00:41:41;;;;;;;12.18;4.45;;;;;;;10.40;76.84;100534.28;6305095;22;20006;-69
2023/01/01 00:44:45;;;;;;;;;;;;;;;10.47;76.11;100546.97;6305533;22;20468;-69
2023/01/01 00:47:50;;;;;;;13.13;4.30;;;;;;;9.82;78.28;100553.69;6305059;22;19918;-69
2023/01/01 00:50:53;;;;;;;8.35;4.18;;;;;;;9.86;78.92;100550.00;6304836;22;20026;-69
2023/01/01 00:53:57;;;;;;;11.93;4.65;;;;;;;9.84;78.73;100545.78;6305202;22;20046;-69
2023/01/01 00:57:00;;;;;;;9.07;3.85;;;;;;;9.98;78.36;100544.16;6305370;22;20050;-68
2023/01/01 01:00:04;;;;;;;;;;;;;;;10.05;78.04;100542.13;6307090;22;20022;-68
2023/01/01 01:03:10;;;;;;;6.57;3.95;;;;;;;9.92;78.06;100534.03;6305594;22;19938;-68
2023/01/01 01:06:15;;;;;;;10.98;3.65;;;;;;;9.80;79.00;100539.03;6307134;22;20022;-69
2023/01/01 01:09:18;;;;;;;10.13;3.95;;;;;;;9.55;79.81;100534.97;6307015;22;20484;-69
2023/01/01 01:12:22;;;;;;;;;;;;;;;9.81;78.88;100541.53;6307547;22;20348;-69
2023/01/01 01:15:25;;;;;;;10.02;3.53;;;;;;;9.79;78.83;100543.38;6307115;22;20396;-69
2023/01/01 01:18:28;;;;;;;9.80;3.70;;;;;;;9.64;79.47;100544.16;6307060;22;20591;-69
2023/01/01 01:21:33;;;;;;;;;;;;;;;9.81;78.98;100546.78;6308193;22;20026;-69
2023/01/01 01:24:36;;;;;;;11.80;3.45;;;;;;;9.83;78.69;100547.56;6306358;22;20160;-68
2023/01/01 01:27:39;;;;;;;9.75;3.05;;;;;;;9.83;78.82;100539.72;6307698;22;20030;-69
2023/01/01 01:30:43;;;;;;;7.55;2.92;;;;;;;9.82;79.23;100543.22;6306537;22;20021;-69
2023/01/01 01:33:48;;;;;;;7.95;3.85;;;;;;;10.04;78.63;100552.63;6306387;22;20464;-69
2023/01/01 01:36:52;;;;;;;7.43;3.33;;;;;;;10.31;78.37;100553.91;6307776;22;20049;-69
2023/01/01 01:39:56;;;;;;;13.55;5.40;;;;;;;10.36;78.18;100567.56;6307673;22;20463;-69
2023/01/01 01:42:59;;;;;;;8.75;3.97;;;;;;;10.48;77.69;100563.50;6307374;22;20349;-69
2023/01/01 01:46:19;;;;;;;7.97;3.95;;;;;;;10.56;76.95;100568.31;6307353;22;20352;-69
2023/01/01 01:49:29;;;;;;;5.45;3.13;;;;;;;10.50;77.29;100581.69;6307597;22;20542;-69
2023/01/01 01:52:34;;;;;;;8.90;4.72;;;;;;;10.40;78.24;100582.19;6307399;22;20121;-69
2023/01/01 01:56:09;;;;;;;9.05;4.30;;;;;;;10.14;79.37;100596.50;6307157;22;20498;-69
2023/01/01 01:59:12;;;;;;;7.40;4.00;;;;;;;10.39;79.03;100590.94;6307243;22;20473;-69
2023/01/01 02:02:45;;;;;;;9.40;4.03;;;;;;;10.51;78.36;100583.41;6306796;22;20173;-69
2023/01/01 02:05:50;;;;;;;6.22;3.80;;;;;;;10.66;77.91;100585.25;6306693;22;20346;-69
2023/01/01 02:08:59;;;;;;;7.22;3.70;;;;;;;10.77;77.57;100563.75;6306213;22;20026;-69
2023/01/01 02:12:02;;;;;;;8.07;5.93;;;;;;;11.13;76.56;100556.53;6307998;22;20373;-69
2023/01/01 02:15:06;;;;;;;9.55;5.28;;;;;;;10.93;77.19;100562.84;6307278;22;20085;-69
2023/01/01 02:18:13;;;;;;;10.02;6.55;;;;;;;10.81;77.89;100573.97;6307230;22;20022;-69
2023/01/01 02:21:22;;;;;;;8.07;5.85;;;;;;;10.83;78.21;100569.50;6307609;22;20066;-69
2023/01/01 02:24:56;;;;;;;9.73;6.38;;;;;;;10.74;77.99;100580.44;6306416;22;20084;-69
2023/01/01 02:28:23;;;;;;;8.88;6.07;;;;;;;10.77;78.34;100580.28;6306811;22;20022;-68
2023/01/01 02:31:32;;;;;;;10.32;7.13;;;;;;;10.85;77.97;100577.28;6306356;22;20284;-68
2023/01/01 02:34:45;;;;;;;10.52;6.93;;;;;;;10.82;77.69;100582.69;6306927;22;20054;-69
2023/01/01 02:37:50;;;;;;;;;;;;;;;10.61;79.17;100592.47;6307736;22;20415;-69
2023/01/01 02:41:01;;;;;;;11.02;7.35;;;;;;;10.56;79.69;100587.50;6306683;22;19914;-69
2023/01/01 02:44:04;;;;;;;10.13;7.45;;;;;;;10.82;78.79;100588.75;6306818;22;20021;-69
2023/01/01 02:47:10;;;;;;;14.77;8.60;;;;;;;10.76;78.69;100591.69;6306901;22;20399;-69
2023/01/01 02:50:21;;;;;;;11.40;8.77;;;;;;;10.71;79.06;100591.06;6307007;22;20386;-69
2023/01/01 02:53:34;;;;;;;11.90;7.57;;;;;;;10.80;79.03;100590.59;6306927;22;20069;-69
2023/01/01 02:56:45;;;;;;;12.70;10.23;;;;;;;10.60;79.98;100589.00;6306865;22;20464;-70
2023/01/01 03:00:18;;;;;;;15.40;9.13;;;;;;;10.70;79.35;100586.75;6307080;22;20120;-69
2023/01/01 03:03:40;;;;;;;12.48;8.82;;;;;;;10.76;78.95;100588.22;6306966;22;20472;-69
2023/01/01 03:06:49;;;;;;;13.77;9.40;;;;;;;10.64;79.58;100584.47;6305495;22;20022;-69
2023/01/01 03:10:01;;;;;;;11.82;8.70;;;;;;;10.65;79.43;100596.59;6305534;22;20057;-69
2023/01/01 03:13:19;;;;;;;13.13;9.73;;;;;;;10.63;79.70;100603.72;6306060;22;20392;-69
2023/01/01 03:17:09;;;;;;;13.93;8.98;;;;;;;10.57;79.83;100614.47;6306479;22;20028;-69
2023/01/01 03:20:21;;;;;;;14.77;10.40;;;;;;;10.72;79.32;100613.69;6306416;22;20025;-69
2023/01/01 03:23:30;;;;;;;13.98;9.73;;;;;;;10.52;80.17;100608.63;6306642;22;20512;-69
2023/01/01 03:26:36;;;;;;;11.82;9.10;;;;;;;10.41;80.57;100610.00;6306729;22;20026;-69
2023/01/01 03:29:42;;;;;;;14.32;8.95;;;;;;;10.50;80.35;100627.00;6306517;22;20022;-69
2023/01/01 03:33:00;;;;;;;12.05;8.65;;;;;;;10.42;80.78;100616.91;6306631;22;20033;-69
2023/01/01 03:36:15;;;;;;;19.75;13.95;;;;;;;10.36;81.12;100612.00;6306608;22;20076;-69
2023/01/01 03:39:29;;;;;;;15.35;11.20;;;;;;;10.30;81.00;100622.75;6306315;22;20463;-69
2023/01/01 03:42:39;;;;;;;;;;;;;;;10.22;82.06;100624.88;6306774;22;20053;-69
2023/01/01 03:45:46;;;;;;;18.75;12.18;;;;;;;10.28;81.06;100626.38;6306520;22;19972;-69
2023/01/01 03:48:56;;;;;;;20.33;11.13;;;;;;;10.23;81.09;100616.13;6306384;22;20022;-69
2023/01/01 03:52:18;;;;;;;18.02;12.52;;;;;;;9.99;82.16;100626.84;6306168;22;20025;-69
2023/01/01 03:55:44;;;;;;;15.98;10.35;;;;;;;10.20;81.23;100631.94;6306289;22;20026;-69
2023/01/01 03:59:20;;;;;;;14.52;9.30;;;;;;;10.04;81.85;100642.28;6306944;22;20029;-69
2023/01/01 04:02:30;;;;;;;21.33;13.43;;;;;;;10.17;80.87;100637.31;6306228;22;20076;-69
2023/01/01 04:05:40;;;;;;;17.90;11.88;;;;;;;10.07;81.07;100630.84;6306297;22;20088;-69
2023/01/01 04:08:45;;;;;;;17.25;10.50;;;;;;;9.80;82.10;100636.50;6305907;22;20080;-69
2023/01/01 04:12:01;;;;;;;16.95;10.57;;;;;;;9.89;82.21;100622.13;6306216;22;20069;-70
2023/01/01 04:15:05;;;;;;;15.27;10.30;;;;;;;9.73;82.54;100627.22;6306287;22;20022;-69
2023/01/01 04:18:08;;;;;;;11.73;9.70;;;;;;;9.63;83.22;100631.19;6306055;22;20073;-70
2023/01/01 04:21:11;;;;;;;14.43;11.40;;;;;;;9.70;83.00;100633.47;6305906;22;20492;-70
2023/01/01 04:24:14;;;;;;;;;;;;;;;9.49;84.05;100640.50;6306063;22;20352;-69
2023/01/01 04:27:18;;;;;;;17.15;10.48;;;;;;;9.68;83.00;100639.66;6305426;22;20036;-69
2023/01/01 04:30:21;;;;;;;16.88;9.25;;;;;;;9.69;82.67;100636.13;6305277;22;20030;-69
2023/01/01 04:33:24;;;;;;;;;;;;;;;9.75;82.13;100634.06;6306211;22;20018;-69
2023/01/01 04:36:28;;;;;;;15.27;10.70;;;;;;;9.52;83.05;100634.31;6306051;22;19929;-69
2023/01/01 04:39:31;;;;;;;17.45;10.60;;;;;;;9.31;83.83;100630.91;6305781;22;20030;-69
2023/01/01 04:42:34;;;;;;;11.52;9.48;;;;;;;9.22;84.27;100634.81;6305621;22;20361;-69
2023/01/01 04:49:37;;;;;;;13.60;8.65;;;;;;;9.33;84.16;100639.53;6305587;22;20058;-69
2023/01/01 04:52:40;;;;;;;;;;;;;;;9.28;84.74;100636.25;6306192;22;20026;-69
2023/01/01 04:56:20;;;;;;;16.02;10.88;;;;;;;9.54;83.30;100646.38;5129808;27;20753;-69
2023/01/01 04:59:23;;;;;;;13.55;8.20;;;;;;;9.55;83.17;100645.47;5130066;27;20043;-69
2023/01/01 05:02:27;;;;;;;12.95;7.80;;;;;;;9.44;83.57;100649.47;5130157;28;20039;-69
2023/01/01 05:05:31;;;;;;;12.15;7.55;;;;;;;9.26;84.06;100643.34;5117325;28;20093;-70
2023/01/01 05:08:38;;;;;;;12.77;7.30;;;;;;;9.44;84.24;100642.47;5130043;28;20501;-70
2023/01/01 05:11:41;;;;;;;10.18;6.50;;;;;;;9.37;84.29;100646.28;5129973;28;20501;-70
2023/01/01 05:14:44;;;;;;;;;;;;;;;9.39;84.63;100646.22;5130392;28;20148;-69
2023/01/01 05:17:47;;;;;;;10.68;5.70;;;;;;;9.42;84.31;100657.38;5129917;28;19923;-69
2023/01/01 05:20:51;;;;;;;;;;;;;;;9.51;83.89;100654.34;5130136;28;20084;-69
2023/01/01 05:24:00;;;;;;;9.80;5.77;;;;;;;9.50;83.75;100662.25;5129846;28;19934;-69
2023/01/01 05:27:03;;;;;;;8.30;5.35;;;;;;;9.62;83.03;100666.06;5129670;28;20330;-69
2023/01/01 05:30:07;;;;;;;;;;;;;;;9.53;83.82;100662.09;5130136;28;20045;-69
2023/01/01 05:33:11;;;;;;;9.02;4.95;;;;;;;9.61;83.20;100659.16;5129461;28;19919;-69
2023/01/01 05:36:24;;;;;;;10.07;5.22;;;;;;;9.48;83.92;100664.09;5129595;28;20062;-69
2023/01/01 05:39:27;;;;;;;10.75;3.97;;;;;;;9.72;83.30;100654.25;5129474;28;20057;-69
2023/01/01 05:42:30;;;;;;;8.65;4.72;;;;;;;9.56;84.08;100661.97;5124056;28;20066;-69
2023/01/01 05:45:33;;;;;;;;;;;;;;;9.85;83.09;100667.59;5109568;28;20576;-69
2023/01/01 05:48:37;;;;;;;13.07;4.10;;;;;;;9.82;83.16;100672.97;5109005;28;19935;-69
2023/01/01 05:51:41;;;;;;;6.70;3.20;;;;;;;9.72;83.98;100675.16;5106089;28;20273;-69
2023/01/01 05:54:44;;;;;;;6.43;3.05;;;;;;;9.84;83.48;100671.97;5107610;28;20067;-69
2023/01/01 05:57:48;;;;;;;6.07;3.42;;;;;;;9.47;84.93;100672.81;5108569;28;20145;-69
2023/01/01 06:00:52;;;;;;;6.68;3.15;;;;;;;9.71;84.51;100686.53;4751731;28;9999705;-69
2023/01/01 06:03:57;;;;;;;9.60;3.03;;;;;;;9.74;83.90;100697.69;5104439;28;20057;-69
2023/01/01 06:07:00;;;;;;;11.30;2.80;;;;;;;9.58;84.79;100693.22;5092914;28;20082;-69
2023/01/01 06:10:04;;;;;;;;;;;;;;;9.69;84.35;100683.13;5091777;28;20051;-69
2023/01/01 06:13:07;;;;;;;8.00;3.65;;;;;;;9.54;84.95;100690.75;5091028;28;20383;-69
2023/01/01 06:16:11;;;;;;;7.55;4.45;;;;;;;9.59;85.08;100697.53;5091177;28;20050;-69
2023/01/01 06:19:14;;;;;;;7.13;4.32;;;;;;;9.67;84.31;100705.88;5091098;28;20090;-69
2023/01/01 06:22:18;;;;;;;11.68;4.93;;;;;;;9.53;84.79;100689.03;5090781;28;20070;-68
2023/01/01 06:25:21;;;;;;;8.88;4.95;;;;;;;9.57;84.70;100687.13;5092558;28;20039;-69
2023/01/01 06:28:25;;;;;;;7.65;4.68;;;;;;;9.67;84.05;100691.03;5094163;28;20097;-69
2023/01/01 06:31:29;;;;;;;11.07;4.13;;;;;;;9.57;85.00;100699.34;5093123;28;20042;-69
2023/01/01 06:34:32;;;;;;;8.32;4.30;;;;;;;9.86;83.59;100713.69;5093695;28;20073;-69
2023/01/01 06:37:36;;;;;;;7.65;3.28;;;;;;;9.90;83.48;100729.16;5094169;28;20131;-69
2023/01/01 06:40:40;;;;;;;4.97;2.65;;;;;;;10.00;83.22;100730.41;5094188;28;20050;-69
2023/01/01 06:43:44;;;;;;;8.10;2.92;;;;;;;10.10;82.57;100728.22;5093483;28;20439;-69
2023/01/01 06:46:47;;;;;;;8.60;2.53;;;;;;;9.96;83.35;100739.31;5093005;28;20101;-69
2023/01/01 06:49:50;;;;;;;;;;;;;;;10.13;82.61;100748.13;5093785;28;20088;-70
2023/01/01 06:52:54;;;;;;;8.93;2.50;;;;;;;10.30;82.02;100737.75;5093688;28;20291;-70
2023/01/01 06:55:57;;;;;;;5.93;2.25;;;;;;;10.42;81.36;100744.16;5094275;28;20055;-70
2023/01/01 06:59:01;;;;;;;6.55;2.72;;;;;;;10.28;82.28;100737.00;5094160;28;20097;-70
2023/01/01 07:02:03;;;;;;;6.78;2.35;;;;;;;10.39;82.00;100747.78;5093097;28;20092;-69
2023/01/01 07:05:07;;;;;;;;;;;;;;;10.29;82.48;100745.69;5093523;28;20043;-70
2023/01/01 07:08:10;;;;;;;4.80;2.30;;;;;;;10.40;81.85;100748.63;5092925;28;20453;-69
2023/01/01 07:11:14;;;;;;;6.90;1.85;;;;;;;10.48;81.66;100751.72;5093749;28;20062;-70
2023/01/01 07:14:17;;;;;;;4.78;2.05;;;;;;;10.51;81.36;100762.03;5093639;28;20135;-69
2023/01/01 07:17:20;;;;;;;6.63;2.83;;;;;;;10.56;81.24;100769.63;5092588;28;20039;-69
2023/01/01 07:20:24;;;;;;;8.43;4.40;;;;;;;10.59;81.22;100759.91;5093508;28;20042;-68
2023/01/01 07:23:30;;;;;;;7.80;2.97;;;;;;;10.68;81.01;100751.59;4737828;28;9999664;-69
2023/01/01 07:26:33;;;;;;;8.98;3.35;;;;;;;10.64;81.33;100772.75;5093419;28;20454;-69
2023/01/01 07:29:36;;;;;;;4.35;2.35;;;;;;;10.68;80.54;100764.66;5093464;28;20093;-70
2023/01/01 07:32:40;;;;;;;5.97;2.63;;;;;;;10.72;81.25;100775.84;5089200;28;20124;-70
2023/01/01 07:35:44;;;;;;;7.47;2.75;;;;;;;10.71;81.07;100782.81;5087591;28;20043;-70
2023/01/01 07:38:48;;;;;;;12.95;4.30;;;;;;;10.71;80.96;100777.59;5090019;28;20442;-70
2023/01/01 07:41:51;;;;;;;11.45;6.35;;;;;;;10.75;80.71;100769.59;5089049;28;20038;-69
2023/01/01 07:44:55;;;;;;;10.20;4.15;;;;;;;10.70;81.35;100777.69;5087386;28;20039;-70
2023/01/01 07:47:59;;;;;;;9.43;3.03;;;;;;;10.63;81.33;100786.75;5088057;28;20593;-69
2023/01/01 07:51:03;;;;;;;11.43;3.40;;;;;;;10.69;81.28;100791.69;5087425;28;20042;-69
2023/01/01 07:54:06;;;;;;;;;;;;;;;10.69;81.01;100792.53;5084774;28;20062;-69
2023/01/01 07:57:09;;;;;;;14.00;8.40;;;;;;;10.65;81.27;100800.56;5088678;28;19984;-68
2023/01/01 08:00:16;;;;;;;10.00;6.57;;;;;;;10.52;82.03;100795.09;5088293;28;20118;-69
2023/01/01 08:03:19;;;;;;;7.82;5.38;;;;;;;10.64;81.38;100812.81;5087154;28;20121;-69
2023/01/01 08:06:23;;;;;;;10.27;5.25;;;;;;;10.75;80.81;100804.44;5087064;28;20042;-69
2023/01/01 08:13:36;;;;;;;8.95;4.75;;;;;;;10.40;82.88;100811.34;5011629;28;20107;-80
2023/01/01 08:16:39;;;;;;;10.25;5.43;;;;;;;10.47;82.68;100803.16;5013725;28;20516;-83
2023/01/01 08:19:48;;;;;;;12.02;5.35;;;;;;;10.66;81.88;100813.59;5012757;28;20128;-88
2023/01/01 08:22:54;;;;;;;10.02;5.45;;;;;;;10.61;82.26;100828.66;5012092;28;20133;-86
2023/01/01 08:26:01;;;;;;;7.10;4.45;;;;;;;10.60;82.18;100839.19;5013445;28;20057;-89
2023/01/01 08:29:05;;;;;;;6.53;3.72;;;;;;;10.57;82.32;100836.72;5011747;28;20503;-86
2023/01/01 08:32:14;;;;;;;5.35;2.70;;;;;;;10.80;81.03;100833.84;5013928;28;20056;-90
2023/01/01 08:35:18;;;;;;;7.80;2.42;;;;;;;11.46;76.48;100833.22;5014533;28;20061;-91
2023/01/01 08:39:17;;;;;;;6.63;2.42;;;;;;;11.66;75.50;100836.56;5013013;28;20044;-87
2023/01/01 08:43:43;;;;;;;7.03;2.20;;;;;;;11.89;75.32;100835.41;5013544;28;20052;-87
2023/01/01 08:47:47;;;;;;;9.35;2.20;;;;;;;11.88;74.13;100836.34;5012774;28;20041;-84
2023/01/01 08:51:10;;;;;;;8.00;2.63;;;;;;;11.75;75.67;100847.41;5013070;28;20579;-82
2023/01/01 08:54:17;;;;;;;4.65;2.33;;;;;;;11.68;77.21;100859.16;5013088;28;20092;-82
2023/01/01 08:57:23;;;;;;;7.70;2.90;;;;;;;11.69;77.03;100844.28;5012159;28;20072;-83
2023/01/01 09:00:27;;;;;;;8.70;2.85;;;;;;;11.72;77.32;100849.34;5012407;28;20428;-82
2023/01/01 09:03:38;;;;;;;7.15;3.08;;;;;;;11.70;77.82;100838.09;5012414;28;20132;-82
2023/01/01 09:06:47;;;;;;;7.70;3.70;;;;;;;11.73;77.56;100833.53;5013044;28;20508;-91
2023/01/01 09:10:07;;;;;;;8.80;2.95;;;;;;;11.84;76.84;100848.72;5013437;28;20160;-83
2023/01/01 09:13:18;;;;;;;8.38;3.30;;;;;;;11.74;76.98;100845.72;5012956;28;20080;-85
2023/01/01 09:16:22;;;;;;;6.70;2.88;;;;;;;11.90;76.26;100848.44;5013098;28;20048;-83
2023/01/01 09:19:27;;;;;;;4.20;2.25;;;;;;;11.99;76.23;100839.22;5012840;28;20088;-85
2023/01/01 09:22:32;;;;;;;10.73;2.78;;;;;;;12.12;74.25;100850.72;5012916;28;20140;-82
2023/01/01 09:25:39;;;;;;;8.25;2.17;;;;;;;12.12;76.38;100858.59;5011786;28;20099;-81
2023/01/01 09:28:43;;;;;;;5.85;2.35;;;;;;;12.12;76.56;100855.13;5012546;28;20397;-81
2023/01/01 09:31:47;;;;;;;5.22;2.08;;;;;;;12.10;75.40;100847.38;5012346;28;20072;-79
2023/01/01 09:34:56;;;;;;;7.95;2.30;;;;;;;12.30;74.56;100849.75;5013274;28;20133;-88
2023/01/01 09:38:01;;;;;;;7.55;1.90;;;;;;;12.31;76.33;100861.06;5013458;28;20049;-90
2023/01/01 09:41:47;;;;;;;10.70;3.58;;;;;;;12.26;75.37;100868.38;5014438;28;20052;-85
2023/01/01 09:45:16;;;;;;;8.20;2.55;;;;;;;12.44;75.81;100867.34;5017085;28;20045;-88
2023/01/01 09:48:23;;;;;;;9.40;2.45;;;;;;;12.47;76.00;100868.97;5016605;28;20491;-87
2023/01/01 09:51:37;;;;;;;7.05;2.65;;;;;;;12.52;76.62;100880.91;5016391;28;20056;-88
2023/01/01 09:55:15;;;;;;;9.90;2.88;;;;;;;12.54;74.79;100893.94;5016293;28;20048;-89
2023/01/01 09:58:24;;;;;;;8.43;2.47;;;;;;;12.55;73.61;100891.22;5015379;28;20092;-82
2023/01/01 10:01:36;;;;;;;5.82;2.33;;;;;;;12.64;74.75;100894.28;5016396;28;20099;-85
2023/01/01 10:05:10;;;;;;;9.95;4.53;;;;;;;12.59;75.04;100899.78;5016862;28;20121;-93
2023/01/01 10:08:41;;;;;;;9.70;3.47;;;;;;;12.67;75.96;100897.59;5017391;28;20044;-93
2023/01/01 10:12:06;;;;;;;10.88;3.70;;;;;;;12.70;75.66;100884.31;5029086;28;20154;-86
2023/01/01 10:15:19;;;;;;;13.60;4.32;;;;;;;12.72;76.00;100887.66;5031977;28;20055;-83
2023/01/01 10:18:32;;;;;;;10.50;5.60;;;;;;;12.68;75.06;100885.31;5030959;28;20404;-84
2023/01/01 10:21:40;;;;;;;13.82;4.40;;;;;;;12.71;75.54;100880.72;5033304;28;20053;-88
2023/01/01 10:25:25;;;;;;;7.50;3.13;;;;;;;12.82;74.60;100877.50;5053117;28;20071;-88
2023/01/01 10:28:53;;;;;;;7.07;2.60;;;;;;;12.82;72.74;100879.28;4989803;28;20750;-88
2023/01/01 10:32:19;;;;;;;8.52;2.25;;;;;;;13.04;69.85;100882.38;4985936;28;20040;-90
2023/01/01 10:35:37;;;;;;;4.97;1.95;;;;;;;13.06;71.35;100891.03;5070091;28;20040;-89
2023/01/01 10:38:43;;;;;;;7.50;2.03;;;;;;;12.99;72.57;100890.53;5049245;28;20052;-94
2023/01/01 10:41:47;;;;;;;8.57;2.83;;;;;;;13.05;73.05;100889.34;5051790;28;20462;-89
2023/01/01 10:45:04;;;;;;;7.45;3.40;;;;;;;12.96;74.49;100887.25;5052481;28;20408;-92
2023/01/01 10:48:23;;;;;;;7.93;3.17;;;;;;;12.91;73.47;100889.28;5054676;28;20055;-92
2023/01/01 10:51:58;;;;;;;7.30;3.13;;;;;;;13.03;73.14;100880.72;5052961;28;20063;-90
2023/01/01 10:55:29;;;;;;;7.60;3.60;;;;;;;12.99;74.03;100885.28;5052654;28;20430;-90
2023/01/01 10:58:57;;;;;;;10.45;4.40;;;;;;;13.03;72.78;100886.81;5055971;28;20062;-85
2023/01/01 11:02:27;;;;;;;7.78;3.65;;;;;;;13.13;75.23;100879.25;5063632;28;20155;-86
2023/01/01 11:05:58;;;;;;;8.82;3.40;;;;;;;13.07;73.81;100879.59;5053296;28;20131;-88
2023/01/01 11:09:27;;;;;;;10.90;2.67;;;;;;;13.11;75.61;100869.75;5038971;28;20061;-88
2023/01/01 11:12:54;;;;;;;7.85;5.82;;;;;;;13.12;74.35;100861.81;5035103;28;20091;-88
2023/01/01 11:15:59;;;;;;;9.18;2.67;;;;;;;13.31;69.49;100858.16;5052424;28;20095;-87
2023/01/01 11:19:16;;;;;;;8.50;2.53;;;;;;;13.43;71.30;100854.78;5068797;28;20048;-87
2023/01/01 11:27:41;;;;;;;11.27;2.40;;;;;;;13.61;68.88;100840.56;5049656;28;20103;-85
2023/01/01 11:31:20;;;;;;;9.18;3.13;;;;;;;13.57;70.26;100839.06;5066774;28;20051;-85
2023/01/01 11:35:00;;;;;;;5.80;2.15;;;;;;;13.76;70.28;100836.19;5030135;28;20503;-86
2023/01/01 11:38:46;;;;;;;6.60;1.90;;;;;;;13.77;67.46;100834.41;5032411;28;20102;-86
2023/01/01 11:42:07;;;;;;;9.32;2.63;;;;;;;13.87;66.81;100830.25;5056543;28;20043;-85
2023/01/01 11:45:49;;;;;;;14.20;6.13;;;;;;;14.06;66.26;100830.81;5051961;28;20059;-86
2023/01/01 11:50:19;;;;;;;7.60;2.15;;;;;;;14.05;65.73;100818.63;4925978;28;20057;-85
2023/01/01 11:53:42;;;;;;;10.52;3.22;;;;;;;14.13;66.21;100821.59;4957795;28;20578;-88
2023/01/01 11:56:52;;;;;;;6.85;2.25;;;;;;;14.05;65.74;100826.50;4957094;28;20057;-84
2023/01/01 12:00:03;;;;;;;8.55;2.17;;;;;;;14.23;65.23;100831.53;4981760;28;20523;-84
2023/01/01 12:03:41;;;;;;;9.40;2.10;;;;;;;14.31;64.94;100834.56;5061130;28;20059;-87
2023/01/01 12:06:58;;;;;;;7.50;1.70;;;;;;;14.32;64.46;100833.59;5041391;28;20071;-86
2023/01/01 12:10:12;;;;;;;6.07;2.38;;;;;;;14.35;64.23;100831.63;5047376;28;20047;-86
2023/01/01 12:13:51;;;;;;;6.03;1.77;;;;;;;14.37;64.36;100836.81;5035476;28;20156;-85
2023/01/01 12:17:06;;;;;;;6.35;2.67;;;;;;;14.40;64.17;100845.34;5031695;28;20051;-85
2023/01/01 12:20:29;;;;;;;8.50;2.08;;;;;;;14.44;63.81;100840.72;5045565;28;20040;-84
2023/01/01 12:23:43;;;;;;;7.43;2.17;;;;;;;14.42;64.56;100842.59;5047835;28;20526;-85
2023/01/01 12:26:58;;;;;;;18.02;13.07;;;;;;;14.26;65.07;100847.13;5045020;28;20044;-85
2023/01/01 12:30:24;;;;;;;14.15;9.80;;;;;;;14.27;64.82;100852.31;5049011;28;20079;-87
2023/01/01 12:33:50;;;;;;;9.43;3.42;;;;;;;14.21;65.13;100854.50;5057157;28;20143;-85
2023/01/01 12:37:00;;;;;;;6.40;3.28;;;;;;;14.21;64.64;100857.13;5051288;28;20044;-86
2023/01/01 12:40:40;;;;;;;7.13;1.92;;;;;;;14.31;64.52;100850.34;5049272;28;20040;-86
2023/01/01 12:48:00;;;;;;;10.05;2.53;;;;;;;14.12;64.96;100851.47;5038953;28;20048;-87
2023/01/01 12:51:57;;;;;;;8.55;2.33;;;;;;;14.23;65.05;100849.97;5030694;28;20040;-87
2023/01/01 12:55:49;;;;;;;11.18;5.07;;;;;;;14.18;65.30;100850.25;5029859;28;20504;-85
2023/01/01 13:08:05;;;;;;;11.75;3.50;;;;;;;14.19;67.95;100830.91;5052072;28;20510;-86
2023/01/01 13:11:18;;;;;;;9.05;3.00;;;;;;;14.13;68.74;100829.50;5051589;28;20091;-85
2023/01/01 13:14:24;;;;;;;9.48;2.78;;;;;;;14.12;67.73;100829.59;5051613;28;20039;-85
2023/01/01 13:17:41;;;;;;;7.63;2.42;;;;;;;14.06;67.97;100838.69;5055709;28;20130;-85
2023/01/01 13:21:01;;;;;;;7.28;2.03;;;;;;;14.04;67.96;100827.47;5055920;28;20048;-84
2023/01/01 13:24:28;;;;;;;7.30;1.98;;;;;;;14.08;68.38;100825.47;5054275;28;20036;-86
2023/01/01 13:28:02;;;;;;;5.95;2.08;;;;;;;14.11;68.73;100826.13;5056666;28;20044;-87
2023/01/01 13:31:25;;;;;;;;;;;;;;;;;;;;;
2023/01/01 13:35:20;;;;;;;6.53;1.85;;;;;;;13.86;67.52;100824.16;5024480;28;20511;-87
2023/01/01 13:39:19;;;;;;;6.13;2.35;;;;;;;13.91;66.52;100824.75;5056593;28;20130;-88
2023/01/01 13:43:08;;;;;;;8.82;4.32;;;;;;;13.96;65.98;100824.44;5048687;28;20091;-91
2023/01/01 13:52:06;;;;;;;9.98;5.18;;;;;;;14.12;66.85;100834.84;5054920;28;20040;-87
2023/01/01 13:56:07;;;;;;;;;;;;;;;;;;;;;
2023/01/01 14:01:01;;;;;;;;;;;;;;;;;;;;;
2023/01/01 14:05:40;;;;;;;;;;;;;;;;;;;;;
2023/01/01 14:09:32;;;;;;;7.60;2.17;;;;;;;13.99;69.97;100826.03;5055119;28;20043;-89
2023/01/01 14:13:27;;;;;;;7.35;2.47;;;;;;;13.98;70.27;100827.84;5033755;28;20056;-89
2023/01/01 14:17:06;;;;;;;6.07;2.00;;;;;;;13.92;70.47;100834.31;4895879;29;20064;-87
2023/01/01 14:20:32;;;;;;;7.75;2.05;;;;;;;13.94;71.46;100835.06;4970394;28;20062;-87
2023/01/01 14:29:47;;;;;;;8.27;1.90;;;;;;;13.63;74.66;100825.56;4923905;29;20051;-87
2023/01/01 14:37:38;;;;;;;7.10;2.10;;;;;;;13.56;75.31;100833.88;4984845;28;20080;-88
2023/01/01 14:41:35;;;;;;;8.15;2.35;;;;;;;13.56;75.02;100840.00;4993149;28;20481;-86
2023/01/01 14:44:53;;;;;;;8.00;1.92;;;;;;;13.51;74.72;100839.44;5017584;28;20151;-87
2023/01/01 14:52:36;;;;;;;7.70;2.15;;;;;;;13.46;75.01;100823.09;5075340;28;20552;-87
2023/01/01 14:56:19;;;;;;;6.20;2.10;;;;;;;13.42;75.81;100835.56;5049389;28;20063;-87
2023/01/01 15:00:15;;;;;;;9.23;1.95;;;;;;;13.35;76.46;100838.66;5031605;28;20040;-91
2023/01/01 15:04:28;;;;;;;9.35;2.22;;;;;;;13.30;76.42;100844.16;5001424;28;20061;-89
2023/01/01 15:08:55;;;;;;;6.68;2.58;;;;;;;13.25;76.40;100838.34;4995305;28;20076;-91
2023/01/01 15:16:35;;;;;;;8.50;3.97;;;;;;;12.82;79.23;100859.13;5030001;28;20044;-84
2023/01/01 15:20:29;;;;;;;11.98;3.72;;;;;;;12.97;78.52;100854.81;5049540;28;20044;-86
2023/01/01 15:28:55;;;;;;;13.35;3.97;;;;;;;12.90;80.36;100863.97;5064951;28;20063;-85
2023/01/01 15:32:31;;;;;;;13.38;3.40;;;;;;;12.75;81.56;100863.03;5047686;28;20043;-83
2023/01/01 15:36:36;;;;;;;19.55;10.18;;;;;;;12.67;82.68;100860.84;5022894;28;21059;-84
2023/01/01 15:40:21;;;;;;;15.90;7.88;;;;;;;12.56;83.47;100845.69;5043534;28;20175;-83
2023/01/01 15:50:05;;;;;;;13.23;5.03;;;;;;;12.59;83.78;100843.84;5053920;28;20040;-82
2023/01/01 16:19:27;;;;;;;11.88;7.15;;;;;;;12.05;88.74;100854.63;5054753;28;20055;-81
2023/01/01 16:23:27;;;;;;;33.55;27.70;;;;;;;12.08;88.76;100844.81;5058789;28;20040;-82
2023/01/01 16:26:52;;;;;;;26.15;18.88;;;;;;;12.03;89.28;100841.59;5059318;28;20420;-83
2023/01/01 16:30:26;;;;;;;23.58;16.63;;;;;;;12.07;89.87;100835.25;5057089;28;20048;-85
2023/01/01 16:33:58;;;;;;;21.67;10.90;;;;;;;12.16;89.13;100820.81;5057329;28;20095;-85
2023/01/01 16:37:49;;;;;;;23.60;16.77;;;;;;;12.20;88.30;100824.97;5040072;28;20098;-87
2023/01/01 16:41:45;;;;;;;13.23;6.47;;;;;;;12.14;88.49;100813.97;5045737;28;20091;-92
2023/01/01 16:44:54;;;;;;;13.13;6.88;;;;;;;12.12;88.55;100819.28;5009844;23;20413;-81
2023/01/01 16:47:59;;;;;;;24.38;11.52;;;;;;;12.03;89.48;100825.03;4991158;28;20070;-81
2023/01/01 16:51:18;;;;;;;28.35;9.45;;;;;;;11.97;89.84;100822.75;4977415;28;20097;-84